首页
METAR-TAF:

METAR-TAF

机场 :

Hill City Municipal Airport

Hill City, 堪薩斯州, 美国

纬度: 39-22-29N, 经度: 099-49-47W, 海拔: 678米

当前天气观测

该预报发布于19分钟前的06:53 UTC
风速4节,风向西转西南
温度 24°C
湿度 69%
气压 1010 hPa
能見度: 16.1公里
天空无云

METAR: KHLC 130653Z AUTO 24004KT 10SM CLR 24/18 A2983 RMK AO2 SLP068 T02440178 $

时间: 02:12 (07:12 UTC)


TAF: 丢失

超过4000个机场的气象观测和天气预报(METAR&TAF报告)。

可查询的气象台以黄色和红色小点在地图上表示。

将鼠标移到小点上方,可查看气象台名称。

然后点击查看天气观测和预报。

如需切换地图:点击带黑十字的绿色按钮放大地图;点击带横线的绿色按钮缩小地图;或者点击绿色箭头查看邻近地区的地图。


METAR-TAF: